sensor_id;sensor_type;location;lat;lon;timestamp;P1;durP1;ratioP1;P2;durP2;ratioP2
12165;SDS011;6146;48.128;11.476;2023-04-21T00:00:59;15.10;;;13.60;;
12165;SDS011;6146;48.128;11.476;2023-04-21T00:03:25;15.60;;;13.47;;
12165;SDS011;6146;48.128;11.476;2023-04-21T00:05:52;16.70;;;13.93;;
12165;SDS011;6146;48.128;11.476;2023-04-21T00:08:20;14.53;;;13.03;;
12165;SDS011;6146;48.128;11.476;2023-04-21T00:10:45;14.77;;;13.13;;
12165;SDS011;6146;48.128;11.476;2023-04-21T00:13:11;14.27;;;12.77;;
12165;SDS011;6146;48.128;11.476;2023-04-21T00:15:37;15.73;;;13.97;;
12165;SDS011;6146;48.128;11.476;2023-04-21T00:18:02;17.23;;;14.33;;
12165;SDS011;6146;48.128;11.476;2023-04-21T00:20:29;16.70;;;14.03;;
12165;SDS011;6146;48.128;11.476;2023-04-21T00:22:55;16.60;;;14.80;;
12165;SDS011;6146;48.128;11.476;2023-04-21T00:25:21;18.43;;;14.63;;
12165;SDS011;6146;48.128;11.476;2023-04-21T00:27:47;17.50;;;14.63;;
12165;SDS011;6146;48.128;11.476;2023-04-21T00:30:13;16.60;;;14.40;;
12165;SDS011;6146;48.128;11.476;2023-04-21T00:32:39;18.07;;;14.87;;
12165;SDS011;6146;48.128;11.476;2023-04-21T00:35:04;15.93;;;14.23;;
12165;SDS011;6146;48.128;11.476;2023-04-21T00:37:30;17.77;;;14.73;;
12165;SDS011;6146;48.128;11.476;2023-04-21T00:39:56;16.93;;;14.33;;
12165;SDS011;6146;48.128;11.476;2023-04-21T00:42:22;18.47;;;15.03;;
12165;SDS011;6146;48.128;11.476;2023-04-21T00:44:48;17.77;;;15.43;;
12165;SDS011;6146;48.128;11.476;2023-04-21T00:47:14;19.00;;;15.20;;
12165;SDS011;6146;48.128;11.476;2023-04-21T00:49:40;19.53;;;14.90;;
12165;SDS011;6146;48.128;11.476;2023-04-21T00:52:06;18.70;;;14.43;;
12165;SDS011;6146;48.128;11.476;2023-04-21T00:54:33;19.90;;;14.83;;
12165;SDS011;6146;48.128;11.476;2023-04-21T00:56:59;17.80;;;15.47;;
12165;SDS011;6146;48.128;11.476;2023-04-21T00:59:26;17.63;;;14.23;;
12165;SDS011;6146;48.128;11.476;2023-04-21T01:01:51;18.53;;;15.50;;
12165;SDS011;6146;48.128;11.476;2023-04-21T01:04:17;17.37;;;13.40;;
12165;SDS011;6146;48.128;11.476;2023-04-21T01:06:43;16.97;;;15.17;;
12165;SDS011;6146;48.128;11.476;2023-04-21T01:09:09;17.23;;;13.77;;
12165;SDS011;6146;48.128;11.476;2023-04-21T01:11:36;16.27;;;13.80;;
12165;SDS011;6146;48.128;11.476;2023-04-21T01:14:02;17.23;;;14.20;;
12165;SDS011;6146;48.128;11.476;2023-04-21T01:16:29;17.27;;;13.70;;
12165;SDS011;6146;48.128;11.476;2023-04-21T01:18:56;17.97;;;14.40;;
12165;SDS011;6146;48.128;11.476;2023-04-21T01:21:23;17.63;;;13.60;;
12165;SDS011;6146;48.128;11.476;2023-04-21T01:23:49;15.63;;;13.60;;
12165;SDS011;6146;48.128;11.476;2023-04-21T01:26:18;14.80;;;12.77;;
12165;SDS011;6146;48.128;11.476;2023-04-21T01:28:45;15.23;;;13.27;;
12165;SDS011;6146;48.128;11.476;2023-04-21T01:31:12;14.60;;;12.83;;
12165;SDS011;6146;48.128;11.476;2023-04-21T01:33:41;15.67;;;12.87;;
12165;SDS011;6146;48.128;11.476;2023-04-21T01:36:08;14.87;;;12.87;;
12165;SDS011;6146;48.128;11.476;2023-04-21T01:38:36;14.27;;;12.73;;
12165;SDS011;6146;48.128;11.476;2023-04-21T01:41:04;14.57;;;12.43;;
12165;SDS011;6146;48.128;11.476;2023-04-21T01:43:29;16.13;;;12.83;;
12165;SDS011;6146;48.128;11.476;2023-04-21T01:45:55;18.23;;;13.90;;
12165;SDS011;6146;48.128;11.476;2023-04-21T01:48:20;16.60;;;13.00;;
12165;SDS011;6146;48.128;11.476;2023-04-21T01:50:46;16.17;;;12.90;;
12165;SDS011;6146;48.128;11.476;2023-04-21T01:53:11;16.10;;;14.23;;
12165;SDS011;6146;48.128;11.476;2023-04-21T01:55:37;15.23;;;13.00;;
12165;SDS011;6146;48.128;11.476;2023-04-21T01:58:03;16.40;;;13.47;;
12165;SDS011;6146;48.128;11.476;2023-04-21T02:00:28;15.00;;;12.93;;
12165;SDS011;6146;48.128;11.476;2023-04-21T02:02:54;15.13;;;12.90;;
12165;SDS011;6146;48.128;11.476;2023-04-21T02:05:19;15.33;;;13.40;;
12165;SDS011;6146;48.128;11.476;2023-04-21T02:07:45;16.53;;;13.10;;
12165;SDS011;6146;48.128;11.476;2023-04-21T02:10:10;15.43;;;13.17;;
12165;SDS011;6146;48.128;11.476;2023-04-21T02:12:36;16.00;;;13.50;;
12165;SDS011;6146;48.128;11.476;2023-04-21T02:15:02;15.57;;;13.43;;
12165;SDS011;6146;48.128;11.476;2023-04-21T02:17:29;15.00;;;13.30;;
12165;SDS011;6146;48.128;11.476;2023-04-21T02:19:55;15.30;;;13.67;;
12165;SDS011;6146;48.128;11.476;2023-04-21T02:22:21;16.03;;;13.53;;
12165;SDS011;6146;48.128;11.476;2023-04-21T02:24:47;17.53;;;14.43;;
12165;SDS011;6146;48.128;11.476;2023-04-21T02:27:13;17.33;;;14.27;;
12165;SDS011;6146;48.128;11.476;2023-04-21T02:29:39;17.63;;;14.73;;
12165;SDS011;6146;48.128;11.476;2023-04-21T02:32:04;22.37;;;15.10;;
12165;SDS011;6146;48.128;11.476;2023-04-21T02:34:30;18.03;;;14.43;;
12165;SDS011;6146;48.128;11.476;2023-04-21T02:36:55;17.23;;;14.40;;
12165;SDS011;6146;48.128;11.476;2023-04-21T02:39:21;15.43;;;13.53;;
12165;SDS011;6146;48.128;11.476;2023-04-21T02:41:47;16.17;;;14.10;;
12165;SDS011;6146;48.128;11.476;2023-04-21T02:44:12;16.57;;;14.77;;
12165;SDS011;6146;48.128;11.476;2023-04-21T02:46:41;16.87;;;14.00;;
12165;SDS011;6146;48.128;11.476;2023-04-21T02:49:07;18.57;;;14.40;;
12165;SDS011;6146;48.128;11.476;2023-04-21T02:51:33;22.40;;;15.37;;
12165;SDS011;6146;48.128;11.476;2023-04-21T02:53:58;17.53;;;14.80;;
12165;SDS011;6146;48.128;11.476;2023-04-21T02:56:24;17.63;;;15.30;;
12165;SDS011;6146;48.128;11.476;2023-04-21T02:58:50;17.80;;;15.27;;
12165;SDS011;6146;48.128;11.476;2023-04-21T03:01:15;18.70;;;15.20;;
12165;SDS011;6146;48.128;11.476;2023-04-21T03:03:41;19.03;;;15.53;;
12165;SDS011;6146;48.128;11.476;2023-04-21T03:06:06;17.80;;;14.37;;
12165;SDS011;6146;48.128;11.476;2023-04-21T03:08:32;18.37;;;16.23;;
12165;SDS011;6146;48.128;11.476;2023-04-21T03:10:58;20.77;;;16.57;;
12165;SDS011;6146;48.128;11.476;2023-04-21T03:13:23;19.20;;;15.77;;
12165;SDS011;6146;48.128;11.476;2023-04-21T03:15:49;19.73;;;16.17;;
12165;SDS011;6146;48.128;11.476;2023-04-21T03:18:15;20.17;;;17.10;;
12165;SDS011;6146;48.128;11.476;2023-04-21T03:20:41;19.20;;;16.60;;
12165;SDS011;6146;48.128;11.476;2023-04-21T03:23:06;18.03;;;16.07;;
12165;SDS011;6146;48.128;11.476;2023-04-21T03:25:32;20.93;;;17.50;;
12165;SDS011;6146;48.128;11.476;2023-04-21T03:27:57;17.73;;;15.30;;
12165;SDS011;6146;48.128;11.476;2023-04-21T03:30:23;18.33;;;15.87;;
12165;SDS011;6146;48.128;11.476;2023-04-21T03:32:50;19.23;;;14.80;;
12165;SDS011;6146;48.128;11.476;2023-04-21T03:35:16;18.50;;;15.07;;
12165;SDS011;6146;48.128;11.476;2023-04-21T03:37:41;17.10;;;15.23;;
12165;SDS011;6146;48.128;11.476;2023-04-21T03:40:07;17.63;;;14.83;;
12165;SDS011;6146;48.128;11.476;2023-04-21T03:42:36;16.50;;;13.70;;
12165;SDS011;6146;48.128;11.476;2023-04-21T03:45:05;17.63;;;13.93;;
12165;SDS011;6146;48.128;11.476;2023-04-21T03:47:34;16.37;;;13.43;;
12165;SDS011;6146;48.128;11.476;2023-04-21T03:50:04;16.17;;;14.40;;
12165;SDS011;6146;48.128;11.476;2023-04-21T03:52:31;16.67;;;13.77;;
12165;SDS011;6146;48.128;11.476;2023-04-21T03:54:56;18.53;;;14.10;;
12165;SDS011;6146;48.128;11.476;2023-04-21T03:57:22;16.53;;;13.97;;
12165;SDS011;6146;48.128;11.476;2023-04-21T03:59:47;19.87;;;16.00;;
12165;SDS011;6146;48.128;11.476;2023-04-21T04:02:13;17.73;;;15.63;;
12165;SDS011;6146;48.128;11.476;2023-04-21T04:04:38;19.03;;;16.33;;
12165;SDS011;6146;48.128;11.476;2023-04-21T04:07:04;21.17;;;15.33;;
12165;SDS011;6146;48.128;11.476;2023-04-21T04:09:31;18.53;;;16.03;;
12165;SDS011;6146;48.128;11.476;2023-04-21T04:11:57;18.30;;;15.27;;
12165;SDS011;6146;48.128;11.476;2023-04-21T04:14:22;17.67;;;14.67;;
12165;SDS011;6146;48.128;11.476;2023-04-21T04:16:48;19.23;;;15.70;;
12165;SDS011;6146;48.128;11.476;2023-04-21T04:19:13;19.20;;;15.73;;
12165;SDS011;6146;48.128;11.476;2023-04-21T04:21:40;17.03;;;15.13;;
12165;SDS011;6146;48.128;11.476;2023-04-21T04:24:05;17.97;;;15.67;;
12165;SDS011;6146;48.128;11.476;2023-04-21T04:26:32;18.07;;;15.20;;
12165;SDS011;6146;48.128;11.476;2023-04-21T04:29:02;18.97;;;15.57;;
12165;SDS011;6146;48.128;11.476;2023-04-21T04:31:29;16.97;;;14.63;;
12165;SDS011;6146;48.128;11.476;2023-04-21T04:33:55;18.67;;;14.37;;
12165;SDS011;6146;48.128;11.476;2023-04-21T04:36:21;17.27;;;15.00;;
12165;SDS011;6146;48.128;11.476;2023-04-21T04:38:48;20.53;;;16.33;;
12165;SDS011;6146;48.128;11.476;2023-04-21T04:41:13;18.97;;;16.00;;
12165;SDS011;6146;48.128;11.476;2023-04-21T04:43:40;18.60;;;15.50;;
12165;SDS011;6146;48.128;11.476;2023-04-21T04:46:06;17.63;;;15.77;;
12165;SDS011;6146;48.128;11.476;2023-04-21T04:48:36;19.37;;;15.93;;
12165;SDS011;6146;48.128;11.476;2023-04-21T04:51:02;17.77;;;15.90;;
12165;SDS011;6146;48.128;11.476;2023-04-21T04:53:28;19.70;;;16.13;;
12165;SDS011;6146;48.128;11.476;2023-04-21T04:55:54;19.90;;;15.97;;
12165;SDS011;6146;48.128;11.476;2023-04-21T04:58:19;20.03;;;16.90;;
12165;SDS011;6146;48.128;11.476;2023-04-21T05:00:46;19.00;;;15.80;;
12165;SDS011;6146;48.128;11.476;2023-04-21T05:03:11;19.20;;;16.20;;
12165;SDS011;6146;48.128;11.476;2023-04-21T05:05:37;17.50;;;14.67;;
12165;SDS011;6146;48.128;11.476;2023-04-21T05:08:02;18.87;;;16.20;;
12165;SDS011;6146;48.128;11.476;2023-04-21T05:10:28;18.10;;;15.73;;
12165;SDS011;6146;48.128;11.476;2023-04-21T05:12:53;17.13;;;14.57;;
12165;SDS011;6146;48.128;11.476;2023-04-21T05:15:19;16.83;;;14.80;;
12165;SDS011;6146;48.128;11.476;2023-04-21T05:17:46;17.60;;;14.57;;
12165;SDS011;6146;48.128;11.476;2023-04-21T05:20:12;17.23;;;15.00;;
12165;SDS011;6146;48.128;11.476;2023-04-21T05:22:37;15.30;;;13.67;;
12165;SDS011;6146;48.128;11.476;2023-04-21T05:25:04;17.00;;;13.70;;
12165;SDS011;6146;48.128;11.476;2023-04-21T05:27:30;15.27;;;13.63;;
12165;SDS011;6146;48.128;11.476;2023-04-21T05:29:56;16.57;;;14.90;;
12165;SDS011;6146;48.128;11.476;2023-04-21T05:32:21;15.80;;;14.10;;
12165;SDS011;6146;48.128;11.476;2023-04-21T05:34:47;14.33;;;12.87;;
12165;SDS011;6146;48.128;11.476;2023-04-21T05:37:12;16.37;;;14.63;;
12165;SDS011;6146;48.128;11.476;2023-04-21T05:39:38;15.13;;;13.53;;
12165;SDS011;6146;48.128;11.476;2023-04-21T05:42:03;14.93;;;13.40;;
12165;SDS011;6146;48.128;11.476;2023-04-21T05:44:29;16.17;;;13.00;;
12165;SDS011;6146;48.128;11.476;2023-04-21T05:46:55;15.63;;;14.00;;
12165;SDS011;6146;48.128;11.476;2023-04-21T05:49:20;14.63;;;13.13;;
12165;SDS011;6146;48.128;11.476;2023-04-21T05:51:46;15.23;;;13.40;;
12165;SDS011;6146;48.128;11.476;2023-04-21T05:54:11;14.40;;;12.90;;
12165;SDS011;6146;48.128;11.476;2023-04-21T05:56:37;16.10;;;13.20;;
12165;SDS011;6146;48.128;11.476;2023-04-21T05:59:02;13.00;;;11.53;;
12165;SDS011;6146;48.128;11.476;2023-04-21T06:01:30;13.23;;;11.70;;
12165;SDS011;6146;48.128;11.476;2023-04-21T06:03:56;13.23;;;11.83;;
12165;SDS011;6146;48.128;11.476;2023-04-21T06:06:22;14.13;;;12.67;;
12165;SDS011;6146;48.128;11.476;2023-04-21T06:08:49;13.13;;;11.83;;
12165;SDS011;6146;48.128;11.476;2023-04-21T06:11:15;11.70;;;10.57;;
12165;SDS011;6146;48.128;11.476;2023-04-21T06:13:41;11.50;;;10.30;;
12165;SDS011;6146;48.128;11.476;2023-04-21T06:16:06;11.87;;;10.53;;
12165;SDS011;6146;48.128;11.476;2023-04-21T06:18:32;11.10;;;10.00;;
12165;SDS011;6146;48.128;11.476;2023-04-21T06:20:57;11.43;;;10.30;;
12165;SDS011;6146;48.128;11.476;2023-04-21T06:23:23;11.00;;;10.00;;
12165;SDS011;6146;48.128;11.476;2023-04-21T06:26:04;10.40;;;9.37;;
12165;SDS011;6146;48.128;11.476;2023-04-21T06:28:34;9.67;;;8.83;;
12165;SDS011;6146;48.128;11.476;2023-04-21T06:31:01;10.17;;;9.27;;
12165;SDS011;6146;48.128;11.476;2023-04-21T06:33:27;9.63;;;8.80;;
12165;SDS011;6146;48.128;11.476;2023-04-21T06:35:53;9.77;;;8.97;;
12165;SDS011;6146;48.128;11.476;2023-04-21T06:38:19;9.07;;;8.23;;
12165;SDS011;6146;48.128;11.476;2023-04-21T06:40:45;8.27;;;7.57;;
12165;SDS011;6146;48.128;11.476;2023-04-21T06:43:10;9.10;;;8.30;;
12165;SDS011;6146;48.128;11.476;2023-04-21T06:45:36;9.60;;;8.70;;
12165;SDS011;6146;48.128;11.476;2023-04-21T06:48:02;9.07;;;8.27;;
12165;SDS011;6146;48.128;11.476;2023-04-21T06:50:27;9.23;;;8.43;;
12165;SDS011;6146;48.128;11.476;2023-04-21T06:52:53;8.10;;;7.40;;
12165;SDS011;6146;48.128;11.476;2023-04-21T06:55:19;9.63;;;8.73;;
12165;SDS011;6146;48.128;11.476;2023-04-21T06:57:44;10.10;;;9.20;;
12165;SDS011;6146;48.128;11.476;2023-04-21T07:00:10;11.20;;;10.20;;
12165;SDS011;6146;48.128;11.476;2023-04-21T07:02:38;11.43;;;10.33;;
12165;SDS011;6146;48.128;11.476;2023-04-21T07:05:05;11.10;;;10.10;;
12165;SDS011;6146;48.128;11.476;2023-04-21T07:07:31;11.93;;;10.83;;
12165;SDS011;6146;48.128;11.476;2023-04-21T07:09:56;11.70;;;10.60;;
12165;SDS011;6146;48.128;11.476;2023-04-21T07:12:22;11.50;;;10.47;;
12165;SDS011;6146;48.128;11.476;2023-04-21T07:14:47;12.57;;;11.27;;
12165;SDS011;6146;48.128;11.476;2023-04-21T07:17:13;12.17;;;10.87;;
12165;SDS011;6146;48.128;11.476;2023-04-21T07:19:38;13.53;;;11.47;;
12165;SDS011;6146;48.128;11.476;2023-04-21T07:22:04;12.07;;;10.87;;
12165;SDS011;6146;48.128;11.476;2023-04-21T07:24:29;13.30;;;11.87;;
12165;SDS011;6146;48.128;11.476;2023-04-21T07:26:56;13.03;;;11.67;;
12165;SDS011;6146;48.128;11.476;2023-04-21T07:29:22;11.73;;;10.53;;
12165;SDS011;6146;48.128;11.476;2023-04-21T07:31:47;12.90;;;11.40;;
12165;SDS011;6146;48.128;11.476;2023-04-21T07:34:13;12.67;;;10.87;;
12165;SDS011;6146;48.128;11.476;2023-04-21T07:36:38;12.73;;;11.43;;
12165;SDS011;6146;48.128;11.476;2023-04-21T07:39:04;11.53;;;10.23;;
12165;SDS011;6146;48.128;11.476;2023-04-21T07:41:30;12.47;;;9.97;;
12165;SDS011;6146;48.128;11.476;2023-04-21T07:43:56;13.43;;;10.33;;
12165;SDS011;6146;48.128;11.476;2023-04-21T07:46:21;10.23;;;9.23;;
12165;SDS011;6146;48.128;11.476;2023-04-21T07:48:49;10.67;;;9.10;;
12165;SDS011;6146;48.128;11.476;2023-04-21T07:51:15;11.47;;;9.87;;
12165;SDS011;6146;48.128;11.476;2023-04-21T07:53:42;10.27;;;9.17;;
12165;SDS011;6146;48.128;11.476;2023-04-21T07:56:07;9.37;;;8.47;;
12165;SDS011;6146;48.128;11.476;2023-04-21T07:58:33;8.60;;;7.80;;
12165;SDS011;6146;48.128;11.476;2023-04-21T08:00:59;8.93;;;8.03;;
12165;SDS011;6146;48.128;11.476;2023-04-21T08:03:24;8.17;;;7.20;;
12165;SDS011;6146;48.128;11.476;2023-04-21T08:05:50;7.17;;;6.50;;
12165;SDS011;6146;48.128;11.476;2023-04-21T08:08:15;8.57;;;7.20;;
12165;SDS011;6146;48.128;11.476;2023-04-21T08:10:44;7.97;;;7.00;;
12165;SDS011;6146;48.128;11.476;2023-04-21T08:13:10;8.80;;;7.90;;
12165;SDS011;6146;48.128;11.476;2023-04-21T08:15:35;9.63;;;8.17;;
12165;SDS011;6146;48.128;11.476;2023-04-21T08:18:01;7.53;;;6.80;;
12165;SDS011;6146;48.128;11.476;2023-04-21T08:20:27;6.63;;;6.03;;
12165;SDS011;6146;48.128;11.476;2023-04-21T08:22:52;7.70;;;6.53;;
12165;SDS011;6146;48.128;11.476;2023-04-21T08:25:18;7.57;;;6.87;;
12165;SDS011;6146;48.128;11.476;2023-04-21T08:27:44;6.73;;;6.03;;
12165;SDS011;6146;48.128;11.476;2023-04-21T08:30:09;7.30;;;6.60;;
12165;SDS011;6146;48.128;11.476;2023-04-21T08:32:35;9.70;;;6.87;;
12165;SDS011;6146;48.128;11.476;2023-04-21T08:35:01;7.63;;;6.93;;
12165;SDS011;6146;48.128;11.476;2023-04-21T08:37:26;7.90;;;7.20;;
12165;SDS011;6146;48.128;11.476;2023-04-21T08:39:53;8.10;;;7.30;;
12165;SDS011;6146;48.128;11.476;2023-04-21T08:42:18;6.60;;;6.00;;
12165;SDS011;6146;48.128;11.476;2023-04-21T08:44:45;8.20;;;7.40;;
12165;SDS011;6146;48.128;11.476;2023-04-21T08:47:11;7.13;;;6.43;;
12165;SDS011;6146;48.128;11.476;2023-04-21T08:49:38;7.67;;;6.97;;
12165;SDS011;6146;48.128;11.476;2023-04-21T08:52:05;6.47;;;5.87;;
12165;SDS011;6146;48.128;11.476;2023-04-21T08:54:31;7.57;;;6.50;;
12165;SDS011;6146;48.128;11.476;2023-04-21T08:56:58;6.90;;;6.30;;
12165;SDS011;6146;48.128;11.476;2023-04-21T08:59:24;7.73;;;7.03;;
12165;SDS011;6146;48.128;11.476;2023-04-21T09:02:05;7.80;;;7.00;;
12165;SDS011;6146;48.128;11.476;2023-04-21T09:04:30;7.20;;;6.50;;
12165;SDS011;6146;48.128;11.476;2023-04-21T09:06:56;7.80;;;6.23;;
12165;SDS011;6146;48.128;11.476;2023-04-21T09:09:22;7.13;;;6.43;;
12165;SDS011;6146;48.128;11.476;2023-04-21T09:11:56;5.93;;;5.43;;
12165;SDS011;6146;48.128;11.476;2023-04-21T09:14:32;7.60;;;6.53;;
12165;SDS011;6146;48.128;11.476;2023-04-21T09:17:01;7.77;;;7.07;;
12165;SDS011;6146;48.128;11.476;2023-04-21T09:19:28;8.50;;;6.70;;
12165;SDS011;6146;48.128;11.476;2023-04-21T09:21:57;7.83;;;7.07;;
12165;SDS011;6146;48.128;11.476;2023-04-21T09:24:24;7.60;;;6.53;;
12165;SDS011;6146;48.128;11.476;2023-04-21T09:26:50;6.77;;;6.17;;
12165;SDS011;6146;48.128;11.476;2023-04-21T09:29:16;7.13;;;5.60;;
12165;SDS011;6146;48.128;11.476;2023-04-21T09:31:43;6.87;;;6.17;;
12165;SDS011;6146;48.128;11.476;2023-04-21T09:34:18;6.80;;;6.00;;
12165;SDS011;6146;48.128;11.476;2023-04-21T09:36:45;6.67;;;5.90;;
12165;SDS011;6146;48.128;11.476;2023-04-21T09:39:12;7.83;;;6.47;;
12165;SDS011;6146;48.128;11.476;2023-04-21T09:41:38;6.60;;;5.90;;
12165;SDS011;6146;48.128;11.476;2023-04-21T09:44:04;6.33;;;5.70;;
12165;SDS011;6146;48.128;11.476;2023-04-21T09:46:31;6.83;;;6.23;;
12165;SDS011;6146;48.128;11.476;2023-04-21T09:48:59;8.17;;;6.60;;
12165;SDS011;6146;48.128;11.476;2023-04-21T09:51:25;7.13;;;6.47;;
12165;SDS011;6146;48.128;11.476;2023-04-21T09:53:56;6.97;;;6.37;;
12165;SDS011;6146;48.128;11.476;2023-04-21T09:56:24;6.10;;;5.50;;
12165;SDS011;6146;48.128;11.476;2023-04-21T09:58:51;7.43;;;6.73;;
12165;SDS011;6146;48.128;11.476;2023-04-21T10:01:18;6.37;;;5.87;;
12165;SDS011;6146;48.128;11.476;2023-04-21T10:03:44;6.93;;;6.33;;
12165;SDS011;6146;48.128;11.476;2023-04-21T10:06:12;6.53;;;6.00;;
12165;SDS011;6146;48.128;11.476;2023-04-21T10:08:38;6.97;;;6.27;;
12165;SDS011;6146;48.128;11.476;2023-04-21T10:11:04;7.50;;;6.77;;
12165;SDS011;6146;48.128;11.476;2023-04-21T10:13:31;6.90;;;6.17;;
12165;SDS011;6146;48.128;11.476;2023-04-21T10:16:09;5.93;;;5.33;;
12165;SDS011;6146;48.128;11.476;2023-04-21T10:18:36;7.07;;;6.47;;
12165;SDS011;6146;48.128;11.476;2023-04-21T10:26:01;7.57;;;6.77;;
12165;SDS011;6146;48.128;11.476;2023-04-21T10:28:38;7.33;;;6.63;;
12165;SDS011;6146;48.128;11.476;2023-04-21T10:36:30;6.87;;;6.27;;
12165;SDS011;6146;48.128;11.476;2023-04-21T10:38:59;6.33;;;5.73;;
12165;SDS011;6146;48.128;11.476;2023-04-21T10:41:27;6.90;;;6.23;;
12165;SDS011;6146;48.128;11.476;2023-04-21T10:44:00;7.40;;;6.70;;
12165;SDS011;6146;48.128;11.476;2023-04-21T10:46:40;6.70;;;6.10;;
12165;SDS011;6146;48.128;11.476;2023-04-21T10:49:25;8.00;;;7.20;;
12165;SDS011;6146;48.128;11.476;2023-04-21T10:57:00;6.87;;;6.20;;
12165;SDS011;6146;48.128;11.476;2023-04-21T10:59:30;5.73;;;4.80;;
12165;SDS011;6146;48.128;11.476;2023-04-21T11:01:55;6.37;;;5.77;;
12165;SDS011;6146;48.128;11.476;2023-04-21T11:04:21;6.00;;;5.40;;
12165;SDS011;6146;48.128;11.476;2023-04-21T11:09:34;6.67;;;6.07;;
12165;SDS011;6146;48.128;11.476;2023-04-21T11:12:02;6.47;;;5.87;;
12165;SDS011;6146;48.128;11.476;2023-04-21T11:14:31;5.67;;;5.17;;
12165;SDS011;6146;48.128;11.476;2023-04-21T11:16:59;8.93;;;8.10;;
12165;SDS011;6146;48.128;11.476;2023-04-21T11:19:25;8.97;;;8.17;;
12165;SDS011;6146;48.128;11.476;2023-04-21T11:21:54;9.17;;;8.23;;
12165;SDS011;6146;48.128;11.476;2023-04-21T11:24:20;10.27;;;9.37;;
12165;SDS011;6146;48.128;11.476;2023-04-21T11:26:46;10.37;;;9.37;;
12165;SDS011;6146;48.128;11.476;2023-04-21T11:29:12;10.27;;;9.37;;
12165;SDS011;6146;48.128;11.476;2023-04-21T11:31:39;9.83;;;8.77;;
12165;SDS011;6146;48.128;11.476;2023-04-21T11:34:12;10.40;;;9.43;;
12165;SDS011;6146;48.128;11.476;2023-04-21T11:36:40;10.20;;;9.20;;
12165;SDS011;6146;48.128;11.476;2023-04-21T11:39:08;9.43;;;8.53;;
12165;SDS011;6146;48.128;11.476;2023-04-21T11:41:37;10.37;;;9.37;;
12165;SDS011;6146;48.128;11.476;2023-04-21T11:44:05;10.33;;;9.37;;
12165;SDS011;6146;48.128;11.476;2023-04-21T11:46:31;9.43;;;8.50;;
12165;SDS011;6146;48.128;11.476;2023-04-21T11:51:23;9.30;;;8.40;;
12165;SDS011;6146;48.128;11.476;2023-04-21T11:53:49;8.33;;;7.53;;
12165;SDS011;6146;48.128;11.476;2023-04-21T11:56:24;8.73;;;7.80;;
12165;SDS011;6146;48.128;11.476;2023-04-21T11:58:50;8.50;;;7.80;;
12165;SDS011;6146;48.128;11.476;2023-04-21T12:01:17;8.23;;;7.53;;
12165;SDS011;6146;48.128;11.476;2023-04-21T12:03:53;8.27;;;7.47;;
12165;SDS011;6146;48.128;11.476;2023-04-21T12:06:23;8.03;;;7.23;;
12165;SDS011;6146;48.128;11.476;2023-04-21T12:08:54;8.40;;;7.60;;
12165;SDS011;6146;48.128;11.476;2023-04-21T12:11:25;7.43;;;6.83;;
12165;SDS011;6146;48.128;11.476;2023-04-21T12:13:58;8.60;;;7.80;;
12165;SDS011;6146;48.128;11.476;2023-04-21T12:16:24;8.20;;;7.50;;
12165;SDS011;6146;48.128;11.476;2023-04-21T12:18:54;8.70;;;7.80;;
12165;SDS011;6146;48.128;11.476;2023-04-21T12:21:20;7.63;;;6.93;;
12165;SDS011;6146;48.128;11.476;2023-04-21T12:23:46;7.50;;;6.90;;
12165;SDS011;6146;48.128;11.476;2023-04-21T12:26:11;9.10;;;8.30;;
12165;SDS011;6146;48.128;11.476;2023-04-21T12:28:37;9.43;;;8.43;;
12165;SDS011;6146;48.128;11.476;2023-04-21T12:31:03;9.07;;;8.17;;
12165;SDS011;6146;48.128;11.476;2023-04-21T12:33:29;9.27;;;8.37;;
12165;SDS011;6146;48.128;11.476;2023-04-21T12:35:55;8.73;;;7.83;;
12165;SDS011;6146;48.128;11.476;2023-04-21T12:38:21;9.20;;;8.40;;
12165;SDS011;6146;48.128;11.476;2023-04-21T12:40:47;9.00;;;8.10;;
12165;SDS011;6146;48.128;11.476;2023-04-21T12:43:12;9.27;;;8.30;;
12165;SDS011;6146;48.128;11.476;2023-04-21T12:45:38;9.83;;;8.87;;
12165;SDS011;6146;48.128;11.476;2023-04-21T12:48:04;8.67;;;7.53;;
12165;SDS011;6146;48.128;11.476;2023-04-21T12:50:30;8.67;;;7.80;;
12165;SDS011;6146;48.128;11.476;2023-04-21T12:52:56;8.50;;;7.60;;
12165;SDS011;6146;48.128;11.476;2023-04-21T12:55:21;9.43;;;7.33;;
12165;SDS011;6146;48.128;11.476;2023-04-21T12:57:47;6.33;;;5.73;;
12165;SDS011;6146;48.128;11.476;2023-04-21T13:00:14;4.90;;;4.50;;
12165;SDS011;6146;48.128;11.476;2023-04-21T13:02:40;5.40;;;4.90;;
12165;SDS011;6146;48.128;11.476;2023-04-21T13:05:05;5.00;;;4.60;;
12165;SDS011;6146;48.128;11.476;2023-04-21T13:07:33;4.73;;;4.33;;
12165;SDS011;6146;48.128;11.476;2023-04-21T13:10:00;4.10;;;3.73;;
12165;SDS011;6146;48.128;11.476;2023-04-21T13:12:26;5.17;;;4.60;;
12165;SDS011;6146;48.128;11.476;2023-04-21T13:14:52;4.17;;;3.77;;
12165;SDS011;6146;48.128;11.476;2023-04-21T13:17:18;4.30;;;3.23;;
12165;SDS011;6146;48.128;11.476;2023-04-21T13:19:43;3.27;;;2.97;;
12165;SDS011;6146;48.128;11.476;2023-04-21T13:22:09;3.10;;;2.80;;
12165;SDS011;6146;48.128;11.476;2023-04-21T13:24:35;4.57;;;2.90;;
12165;SDS011;6146;48.128;11.476;2023-04-21T13:27:00;3.30;;;2.90;;
12165;SDS011;6146;48.128;11.476;2023-04-21T13:29:26;3.27;;;2.47;;
12165;SDS011;6146;48.128;11.476;2023-04-21T13:31:58;2.70;;;2.47;;
12165;SDS011;6146;48.128;11.476;2023-04-21T13:34:24;2.73;;;2.50;;
12165;SDS011;6146;48.128;11.476;2023-04-21T13:36:50;2.87;;;2.20;;
12165;SDS011;6146;48.128;11.476;2023-04-21T13:39:15;3.27;;;2.47;;
12165;SDS011;6146;48.128;11.476;2023-04-21T13:41:41;2.23;;;2.03;;
12165;SDS011;6146;48.128;11.476;2023-04-21T13:44:06;2.93;;;2.40;;
12165;SDS011;6146;48.128;11.476;2023-04-21T13:46:32;6.33;;;2.40;;
12165;SDS011;6146;48.128;11.476;2023-04-21T13:48:57;2.40;;;2.20;;
12165;SDS011;6146;48.128;11.476;2023-04-21T13:51:23;2.40;;;2.20;;
12165;SDS011;6146;48.128;11.476;2023-04-21T13:53:49;3.67;;;2.60;;
12165;SDS011;6146;48.128;11.476;2023-04-21T13:56:15;2.30;;;2.10;;
12165;SDS011;6146;48.128;11.476;2023-04-21T13:58:41;2.40;;;2.20;;
12165;SDS011;6146;48.128;11.476;2023-04-21T14:01:06;2.83;;;2.10;;
12165;SDS011;6146;48.128;11.476;2023-04-21T14:03:32;2.40;;;2.20;;
12165;SDS011;6146;48.128;11.476;2023-04-21T14:05:57;2.90;;;2.60;;
12165;SDS011;6146;48.128;11.476;2023-04-21T14:08:23;2.37;;;2.17;;
12165;SDS011;6146;48.128;11.476;2023-04-21T14:10:48;4.27;;;2.10;;
12165;SDS011;6146;48.128;11.476;2023-04-21T14:13:14;2.37;;;2.17;;
12165;SDS011;6146;48.128;11.476;2023-04-21T14:15:40;2.67;;;2.33;;
12165;SDS011;6146;48.128;11.476;2023-04-21T14:18:06;3.27;;;2.37;;
12165;SDS011;6146;48.128;11.476;2023-04-21T14:20:31;2.40;;;2.20;;
12165;SDS011;6146;48.128;11.476;2023-04-21T14:22:57;3.00;;;2.70;;
12165;SDS011;6146;48.128;11.476;2023-04-21T14:25:22;3.77;;;2.73;;
12165;SDS011;6146;48.128;11.476;2023-04-21T14:27:48;3.20;;;2.90;;
12165;SDS011;6146;48.128;11.476;2023-04-21T14:30:13;3.07;;;2.87;;
12165;SDS011;6146;48.128;11.476;2023-04-21T14:32:39;3.90;;;2.90;;
12165;SDS011;6146;48.128;11.476;2023-04-21T14:35:10;3.00;;;2.70;;
12165;SDS011;6146;48.128;11.476;2023-04-21T14:37:36;3.23;;;2.40;;
12165;SDS011;6146;48.128;11.476;2023-04-21T14:40:02;2.37;;;2.17;;
12165;SDS011;6146;48.128;11.476;2023-04-21T14:42:29;2.90;;;2.33;;
12165;SDS011;6146;48.128;11.476;2023-04-21T14:44:55;2.50;;;2.17;;
12165;SDS011;6146;48.128;11.476;2023-04-21T14:47:20;2.50;;;2.30;;
12165;SDS011;6146;48.128;11.476;2023-04-21T14:49:46;3.13;;;2.23;;